Time;durP1;ratioP1;P1;durP2;ratioP2;P2;SDS_P1;SDS_P2;PMS_P1;PMS_P2;Temp;Humidity;BMP_temperature;BMP_pressure;BME280_temperature;BME280_humidity;BME280_pressure;Samples;Min_cycle;Max_cycle;Signal;HPM_P1;HPM_P2
2023/04/10 00:01:05;;;;;;;38.15;27.65;;;7.20;1.00;;;;;;5045907;28;20393;-65
2023/04/10 00:03:31;;;;;;;36.20;26.58;;;7.50;1.00;;;;;;5040509;28;20053;-64
2023/04/10 00:05:57;;;;;;;36.67;26.30;;;7.40;1.00;;;;;;5048435;28;20139;-65
2023/04/10 00:08:24;;;;;;;37.92;28.40;;;7.40;1.00;;;;;;5052147;28;20036;-64
2023/04/10 00:10:49;;;;;;;41.13;27.75;;;7.10;1.00;;;;;;5049676;28;20569;-65
2023/04/10 00:13:15;;;;;;;43.20;27.90;;;7.40;1.00;;;;;;5042199;28;20120;-64
2023/04/10 00:15:42;;;;;;;41.92;28.88;;;7.20;1.00;;;;;;5048622;28;20051;-64
2023/04/10 00:18:08;;;;;;;39.03;27.33;;;7.30;1.00;;;;;;5047653;28;20112;-65
2023/04/10 00:20:33;;;;;;;40.50;29.45;;;7.40;1.00;;;;;;5050198;28;20128;-64
2023/04/10 00:22:59;;;;;;;40.28;27.67;;;7.00;1.00;;;;;;5041100;28;20452;-64
2023/04/10 00:25:25;;;;;;;42.42;29.48;;;7.30;1.00;;;;;;5049144;28;20061;-64
2023/04/10 00:27:52;;;;;;;44.55;29.30;;;7.30;1.00;;;;;;5049024;28;20479;-63
2023/04/10 00:30:18;;;;;;;44.10;29.88;;;7.20;1.00;;;;;;5051013;28;20119;-64
2023/04/10 00:32:43;;;;;;;40.97;29.85;;;7.10;1.00;;;;;;5047533;28;20132;-62
2023/04/10 00:35:09;;;;;;;38.95;28.75;;;6.90;1.00;;;;;;5048216;28;20046;-64
2023/04/10 00:37:35;;;;;;;40.45;28.98;;;7.00;1.00;;;;;;5040100;28;20033;-64
2023/04/10 00:40:01;;;;;;;39.20;28.30;;;6.70;1.00;;;;;;5047369;28;20053;-63
2023/04/10 00:42:26;;;;;;;41.95;29.90;;;7.30;1.00;;;;;;5045768;28;20110;-63
2023/04/10 00:44:52;;;;;;;39.08;27.67;;;7.00;1.00;;;;;;5055621;28;20460;-62
2023/04/10 00:47:18;;;;;;;41.85;29.85;;;;;;;;;;5048074;28;20025;-63
2023/04/10 00:49:44;;;;;;;46.28;30.95;;;6.90;1.00;;;;;;5043019;28;20037;-65
2023/04/10 00:52:10;;;;;;;42.25;30.10;;;7.00;1.00;;;;;;5049934;28;20529;-64
2023/04/10 00:54:36;;;;;;;42.63;29.20;;;6.60;1.00;;;;;;5039877;28;20546;-64
2023/04/10 00:57:03;;;;;;;41.15;29.35;;;6.80;1.00;;;;;;5048759;28;20045;-64
2023/04/10 00:59:30;;;;;;;42.95;29.92;;;6.90;1.00;;;;;;5041632;28;20033;-63
2023/04/10 01:01:56;;;;;;;41.65;30.23;;;6.70;1.00;;;;;;5050520;28;20134;-63
2023/04/10 01:04:22;;;;;;;43.50;30.73;;;6.70;1.00;;;;;;5044922;28;20474;-62
2023/04/10 01:07:14;;;;;;;43.75;30.70;;;6.70;1.00;;;;;;5032380;28;20127;-63
2023/04/10 01:10:10;;;;;;;44.35;31.33;;;6.50;1.00;;;;;;5049246;28;20085;-62
2023/04/10 01:12:50;;;;;;;44.97;31.52;;;6.50;1.00;;;;;;5046099;28;20445;-64
2023/04/10 01:15:19;;;;;;;45.90;31.92;;;;;;;;;;5042251;28;20044;-63
2023/04/10 01:18:10;;;;;;;42.85;31.55;;;6.50;1.00;;;;;;5040837;28;20040;-63
2023/04/10 01:20:38;;;;;;;42.97;31.48;;;6.50;8.60;;;;;;5043532;28;20380;-63
2023/04/10 01:23:37;;;;;;;41.70;30.67;;;6.10;1.00;;;;;;5028214;28;20099;-61
2023/04/10 01:26:11;;;;;;;44.95;31.20;;;6.40;1.00;;;;;;5043662;28;20418;-63
2023/04/10 01:28:59;;;;;;;46.58;32.17;;;6.20;1.00;;;;;;5048281;28;20120;-63
2023/04/10 01:31:36;;;;;;;42.40;30.27;;;6.50;15.80;;;;;;5044990;28;20410;-63
2023/04/10 01:34:16;;;;;;;44.90;30.77;;;6.10;21.50;;;;;;5044928;28;20119;-63
2023/04/10 01:36:50;;;;;;;44.30;31.58;;;6.30;21.40;;;;;;5045964;28;20040;-62
2023/04/10 01:39:19;;;;;;;45.13;31.45;;;6.10;19.10;;;;;;5025498;28;20391;-63
2023/04/10 01:41:46;;;;;;;43.50;31.05;;;6.10;26.40;;;;;;5049970;28;20211;-64
2023/04/10 01:44:14;;;;;;;44.95;31.13;;;6.60;20.60;;;;;;5038952;28;20033;-64
2023/04/10 01:46:42;;;;;;;43.47;30.67;;;6.30;42.30;;;;;;5048823;28;20083;-63
2023/04/10 01:49:09;;;;;;;45.42;32.08;;;5.90;39.00;;;;;;5040366;28;20054;-61
2023/04/10 01:51:35;;;;;;;43.30;31.83;;;6.80;44.50;;;;;;5042995;28;20075;-63
2023/04/10 01:54:01;;;;;;;46.88;32.40;;;;;;;;;;5029664;28;20053;-62
2023/04/10 01:56:27;;;;;;;46.60;32.58;;;6.20;44.40;;;;;;5046406;28;20045;-63
2023/04/10 01:58:54;;;;;;;43.33;30.88;;;6.40;44.70;;;;;;5041202;28;20092;-63
2023/04/10 02:01:21;;;;;;;43.10;31.88;;;6.80;62.30;;;;;;5044355;28;20512;-63
2023/04/10 02:03:47;;;;;;;43.00;31.02;;;6.60;54.40;;;;;;5048702;28;20338;-61
2023/04/10 02:06:36;;;;;;;41.42;31.08;;;5.80;46.50;;;;;;5044412;28;20041;-63
2023/04/10 02:09:15;;;;;;;42.45;31.27;;;6.40;35.30;;;;;;5043822;28;20049;-63
2023/04/10 02:11:48;;;;;;;43.88;30.30;;;6.20;60.90;;;;;;5037061;28;20052;-63
2023/04/10 02:14:17;;;;;;;44.70;30.95;;;6.70;48.80;;;;;;5039729;28;20056;-63
2023/04/10 02:16:43;;;;;;;41.30;29.98;;;6.00;49.20;;;;;;5042773;28;20091;-63
2023/04/10 02:19:11;;;;;;;41.58;30.13;;;6.00;43.50;;;;;;5048804;28;20037;-63
2023/04/10 02:21:38;;;;;;;39.13;29.17;;;6.70;56.80;;;;;;5044195;28;20124;-63
2023/04/10 02:24:05;;;;;;;46.30;31.15;;;6.00;52.80;;;;;;5043815;28;20032;-64
2023/04/10 02:26:46;;;;;;;42.97;30.70;;;6.40;59.50;;;;;;5046084;28;20115;-63
2023/04/10 02:29:12;;;;;;;42.92;30.58;;;6.20;52.80;;;;;;5047308;28;20079;-63
2023/04/10 02:31:38;;;;;;;44.92;30.83;;;6.60;84.90;;;;;;5045862;28;20068;-63
2023/04/10 02:34:04;;;;;;;44.67;31.38;;;6.00;71.70;;;;;;5047729;28;20112;-63
2023/04/10 02:36:30;;;;;;;43.75;30.80;;;6.20;86.90;;;;;;5048314;28;20529;-64
2023/04/10 02:38:55;;;;;;;44.42;31.33;;;6.10;85.70;;;;;;5044409;28;20437;-63
2023/04/10 02:41:21;;;;;;;46.08;32.53;;;6.00;92.10;;;;;;5048892;28;20128;-64
2023/04/10 02:43:47;;;;;;;42.63;32.25;;;6.00;85.00;;;;;;5042114;28;20517;-62
2023/04/10 02:46:12;;;;;;;42.67;31.08;;;6.30;90.20;;;;;;5049010;28;20175;-64
2023/04/10 02:48:38;;;;;;;44.05;30.65;;;;;;;;;;5042673;28;20033;-64
2023/04/10 02:51:04;;;;;;;47.45;32.15;;;6.00;91.80;;;;;;5048122;28;20048;-64
2023/04/10 02:53:32;;;;;;;43.38;32.58;;;5.80;88.90;;;;;;5047123;28;20029;-63
2023/04/10 02:55:57;;;;;;;44.53;32.08;;;5.90;93.10;;;;;;5043830;28;20380;-64
2023/04/10 02:58:23;;;;;;;47.58;31.88;;;5.90;90.50;;;;;;5049143;28;20370;-64
2023/04/10 03:00:49;;;;;;;43.72;30.88;;;6.20;95.00;;;;;;5042334;28;20040;-64
2023/04/10 03:03:15;;;;;;;41.97;30.77;;;5.90;90.50;;;;;;5046501;28;20457;-64
2023/04/10 03:05:41;;;;;;;43.67;30.15;;;6.10;96.30;;;;;;5040642;28;20042;-64
2023/04/10 03:08:07;;;;;;;42.65;31.15;;;5.70;95.70;;;;;;5042130;28;20406;-64
2023/04/10 03:10:32;;;;;;;45.58;30.63;;;6.20;99.90;;;;;;5043739;28;20065;-63
2023/04/10 03:12:58;;;;;;;41.45;30.17;;;6.00;97.10;;;;;;5040761;28;20148;-63
2023/04/10 03:15:24;;;;;;;41.47;31.23;;;6.50;94.40;;;;;;5047952;28;20044;-64
2023/04/10 03:17:49;;;;;;;44.80;31.88;;;6.00;95.40;;;;;;5035728;28;20037;-64
2023/04/10 03:20:15;;;;;;;45.83;32.45;;;6.00;99.90;;;;;;5043298;28;20097;-63
2023/04/10 03:22:41;;;;;;;46.10;32.30;;;6.00;99.90;;;;;;5036022;28;20117;-62
2023/04/10 03:25:07;;;;;;;43.22;30.85;;;5.80;99.90;;;;;;5046860;28;20472;-64
2023/04/10 03:27:33;;;;;;;44.58;32.28;;;5.80;99.90;;;;;;5042965;28;20044;-64
2023/04/10 03:30:00;;;;;;;46.08;31.90;;;5.70;99.90;;;;;;5042689;28;20113;-64
2023/04/10 03:32:27;;;;;;;42.05;29.95;;;6.30;99.90;;;;;;5039463;28;20045;-63
2023/04/10 03:34:52;;;;;;;43.30;30.90;;;5.90;99.90;;;;;;5024985;28;20036;-63
2023/04/10 03:37:18;;;;;;;43.90;31.23;;;6.20;99.90;;;;;;5047069;28;20037;-62
2023/04/10 03:39:44;;;;;;;45.97;31.98;;;5.70;99.90;;;;;;5035625;28;20037;-61
2023/04/10 03:42:10;;;;;;;41.85;29.27;;;5.70;99.90;;;;;;5048198;28;20129;-64
2023/04/10 03:44:36;;;;;;;43.42;30.92;;;;;;;;;;5035801;28;20109;-64
2023/04/10 03:47:02;;;;;;;40.22;29.45;;;5.90;99.90;;;;;;5039699;28;20045;-64
2023/04/10 03:49:28;;;;;;;42.78;31.45;;;5.50;99.90;;;;;;5041615;28;20044;-60
2023/04/10 03:51:53;;;;;;;43.15;32.38;;;5.90;99.90;;;;;;5026046;28;20041;-63
2023/04/10 03:54:19;;;;;;;41.42;30.50;;;5.70;99.90;;;;;;5042722;28;20495;-61
2023/04/10 03:56:45;;;;;;;41.60;30.70;;;5.90;99.90;;;;;;5039094;28;20131;-62
2023/04/10 03:59:11;;;;;;;44.88;32.97;;;;;;;;;;5041704;28;20426;-63
2023/04/10 04:01:37;;;;;;;41.10;31.08;;;5.60;99.90;;;;;;5038632;28;20087;-61
2023/04/10 04:04:02;;;;;;;43.42;31.45;;;6.00;99.90;;;;;;5042326;28;20517;-63
2023/04/10 04:06:28;;;;;;;38.47;28.17;;;6.10;99.90;;;;;;5043927;28;20039;-61
2023/04/10 04:08:53;;;;;;;43.38;32.38;;;6.50;99.90;;;;;;5045174;28;20037;-61
2023/04/10 04:11:19;;;;;;;42.30;30.10;;;6.40;99.90;;;;;;5042508;28;20543;-63
2023/04/10 04:13:44;;;;;;;38.92;29.40;;;5.80;99.90;;;;;;5045624;28;20052;-62
2023/04/10 04:16:10;;;;;;;42.30;30.50;;;6.50;99.90;;;;;;5048150;28;20529;-62
2023/04/10 04:18:36;;;;;;;41.25;32.30;;;6.40;99.90;;;;;;5040769;28;20042;-63
2023/04/10 04:21:01;;;;;;;41.53;30.65;;;5.90;99.90;;;;;;5051970;28;20634;-63
2023/04/10 04:23:27;;;;;;;41.03;31.35;;;;;;;;;;5048678;28;20041;-64
2023/04/10 04:25:55;;;;;;;40.22;30.95;;;5.90;99.90;;;;;;5044768;28;20037;-62
2023/04/10 04:28:22;;;;;;;44.70;31.77;;;6.10;99.90;;;;;;5038702;28;20030;-62
2023/04/10 04:30:47;;;;;;;40.67;29.95;;;5.80;99.90;;;;;;5051285;28;20037;-63
2023/04/10 04:33:13;;;;;;;41.83;29.35;;;6.60;99.90;;;;;;5047019;28;20051;-63
2023/04/10 04:35:39;;;;;;;42.70;29.23;;;6.50;99.90;;;;;;5043154;28;20040;-64
2023/04/10 04:38:05;;;;;;;38.92;29.00;;;;;;;;;;5044443;28;20036;-63
2023/04/10 04:40:30;;;;;;;40.63;28.50;;;6.00;99.90;;;;;;5044090;28;20037;-64
2023/04/10 04:42:56;;;;;;;39.15;29.20;;;6.40;99.90;;;;;;5042951;28;20411;-64
2023/04/10 04:45:21;;;;;;;40.35;29.02;;;6.30;99.90;;;;;;5044810;28;20094;-62
2023/04/10 04:47:47;;;;;;;35.85;26.40;;;6.00;99.90;;;;;;5039908;28;20124;-63
2023/04/10 04:50:13;;;;;;;37.08;27.73;;;6.40;99.90;;;;;;5041221;28;20090;-62
2023/04/10 04:52:38;;;;;;;39.47;27.80;;;6.20;99.90;;;;;;5043701;28;20102;-63
2023/04/10 04:55:04;;;;;;;38.10;26.55;;;6.70;99.90;;;;;;5048324;28;20067;-61
2023/04/10 04:57:30;;;;;;;37.05;27.17;;;5.70;99.90;;;;;;5049890;28;20090;-62
2023/04/10 04:59:55;;;;;;;34.92;26.90;;;6.20;99.90;;;;;;5048652;28;20033;-62
2023/04/10 05:02:21;;;;;;;36.40;25.65;;;6.90;99.90;;;;;;5041042;28;20065;-62
2023/04/10 05:04:47;;;;;;;32.95;23.85;;;6.50;99.90;;;;;;5037915;28;20046;-63
2023/04/10 05:07:13;;;;;;;37.72;25.80;;;6.40;99.90;;;;;;5047543;28;20402;-62
2023/04/10 05:09:39;;;;;;;39.08;27.02;;;6.70;99.90;;;;;;5050340;28;20040;-63
2023/04/10 05:12:05;;;;;;;36.45;25.10;;;;;;;;;;5048490;28;20033;-63
2023/04/10 05:14:31;;;;;;;35.15;25.95;;;6.60;99.90;;;;;;5050482;28;20036;-64
2023/04/10 05:16:56;;;;;;;37.47;24.95;;;6.80;99.90;;;;;;5045707;28;20407;-64
2023/04/10 05:19:22;;;;;;;34.13;24.63;;;6.40;99.90;;;;;;5046940;28;20505;-63
2023/04/10 05:21:47;;;;;;;35.25;25.08;;;7.10;99.90;;;;;;5048768;28;20498;-65
2023/04/10 05:24:13;;;;;;;33.05;24.80;;;6.40;99.90;;;;;;5050508;28;20040;-64
2023/04/10 05:26:40;;;;;;;32.92;24.17;;;6.90;99.90;;;;;;5049384;28;20021;-65
2023/04/10 05:29:06;;;;;;;32.85;23.08;;;7.00;99.90;;;;;;5032655;28;20128;-65
2023/04/10 05:31:31;;;;;;;32.17;24.70;;;6.80;99.90;;;;;;5047110;28;20195;-64
2023/04/10 05:33:57;;;;;;;31.02;23.13;;;6.70;99.90;;;;;;5048906;28;20032;-64
2023/04/10 05:36:22;;;;;;;30.10;22.40;;;6.90;99.90;;;;;;5049207;28;20033;-63
2023/04/10 05:38:48;;;;;;;29.60;22.05;;;6.80;99.90;;;;;;5040292;28;20111;-64
2023/04/10 05:41:13;;;;;;;33.90;22.67;;;7.00;99.90;;;;;;5049352;28;20041;-64
2023/04/10 05:43:39;;;;;;;36.58;24.45;;;7.30;99.90;;;;;;5046378;28;20047;-63
2023/04/10 05:46:05;;;;;;;28.70;20.33;;;6.90;99.90;;;;;;5050538;28;20029;-64
2023/04/10 05:48:30;;;;;;;31.85;20.10;;;6.80;99.90;;;;;;5050383;28;20079;-64
2023/04/10 05:50:56;;;;;;;29.08;20.90;;;7.10;99.90;;;;;;5043571;28;20040;-64
2023/04/10 05:53:30;;;;;;;28.73;20.52;;;7.20;99.90;;;;;;5062177;28;20501;-64
2023/04/10 05:55:58;;;;;;;28.58;19.70;;;7.10;99.90;;;;;;5048345;28;20178;-64
2023/04/10 05:58:25;;;;;;;27.17;20.00;;;7.10;99.90;;;;;;5042297;28;20303;-64
2023/04/10 06:00:51;;;;;;;30.75;18.60;;;7.80;99.90;;;;;;5048855;28;20079;-64
2023/04/10 06:03:17;;;;;;;29.40;20.65;;;7.40;99.90;;;;;;5048691;28;20033;-64
2023/04/10 06:05:43;;;;;;;26.05;18.70;;;7.50;99.90;;;;;;5045113;28;20036;-64
2023/04/10 06:08:08;;;;;;;27.55;19.10;;;7.50;99.90;;;;;;5044845;28;20033;-63
2023/04/10 06:10:34;;;;;;;28.67;19.83;;;7.30;99.90;;;;;;5049755;28;20091;-64
2023/04/10 06:13:00;;;;;;;24.13;16.95;;;7.60;99.90;;;;;;5054771;28;20041;-64
2023/04/10 06:15:26;;;;;;;26.05;17.20;;;7.80;99.90;;;;;;5045314;28;20402;-65
2023/04/10 06:17:52;;;;;;;24.27;16.63;;;7.50;99.90;;;;;;5047862;28;20049;-65
2023/04/10 06:20:18;;;;;;;21.48;15.88;;;8.10;99.90;;;;;;5034685;28;20083;-65
2023/04/10 06:22:44;;;;;;;23.48;17.25;;;8.10;99.90;;;;;;5039054;28;20042;-65
2023/04/10 06:25:10;;;;;;;25.85;17.55;;;7.80;99.90;;;;;;5047746;28;20090;-64
2023/04/10 06:27:36;;;;;;;21.73;15.43;;;7.80;99.90;;;;;;5049682;28;20441;-63
2023/04/10 06:30:02;;;;;;;26.45;16.83;;;7.80;99.90;;;;;;5046259;28;20037;-64
2023/04/10 06:32:28;;;;;;;23.88;15.73;;;8.40;99.90;;;;;;5039456;28;20159;-65
2023/04/10 06:34:53;;;;;;;25.88;15.85;;;7.80;99.90;;;;;;5047793;28;20068;-64
2023/04/10 06:37:19;;;;;;;23.75;17.20;;;8.40;94.70;;;;;;5048229;28;20040;-64
2023/04/10 06:39:44;;;;;;;25.35;15.98;;;8.40;92.40;;;;;;5047363;28;20041;-64
2023/04/10 06:42:10;;;;;;;26.13;15.75;;;8.30;86.10;;;;;;5040413;28;20057;-65
2023/04/10 06:44:36;;;;;;;21.75;14.85;;;8.60;72.60;;;;;;5039560;28;20069;-64
2023/04/10 06:47:01;;;;;;;25.33;15.95;;;8.40;59.90;;;;;;5043233;28;20047;-64
2023/04/10 06:49:27;;;;;;;21.77;14.80;;;8.80;51.90;;;;;;5034597;28;20471;-62
2023/04/10 06:51:52;;;;;;;22.58;15.60;;;9.30;37.80;;;;;;5039849;28;20047;-65
2023/04/10 06:54:18;;;;;;;22.15;14.35;;;9.00;25.10;;;;;;5042917;28;20037;-65
2023/04/10 06:56:44;;;;;;;21.77;13.95;;;9.10;15.60;;;;;;5048541;28;20490;-66
2023/04/10 06:59:09;;;;;;;20.13;13.13;;;9.70;2.40;;;;;;5040478;28;20507;-65
2023/04/10 07:01:35;;;;;;;21.25;14.35;;;9.40;1.00;;;;;;5048243;28;20033;-65
2023/04/10 07:04:01;;;;;;;21.20;14.63;;;9.10;1.00;;;;;;5048323;28;20490;-66
2023/04/10 07:06:27;;;;;;;19.88;13.50;;;9.70;1.00;;;;;;5047147;28;20060;-66
2023/04/10 07:08:53;;;;;;;21.13;13.80;;;9.90;1.00;;;;;;5046995;28;20422;-68
2023/04/10 07:11:19;;;;;;;20.25;13.80;;;9.70;1.00;;;;;;5049226;28;20051;-67
2023/04/10 07:13:45;;;;;;;19.90;13.25;;;10.40;1.00;;;;;;5047580;28;20215;-67
2023/04/10 07:16:11;;;;;;;18.70;12.43;;;;;;;;;;5045413;28;20033;-67
2023/04/10 07:18:37;;;;;;;20.35;13.85;;;10.40;1.00;;;;;;5043310;28;20044;-68
2023/04/10 07:21:12;;;;;;;20.77;13.15;;;10.60;1.00;;;;;;5047259;28;20045;-67
2023/04/10 07:23:38;;;;;;;20.45;13.45;;;10.30;1.00;;;;;;5048523;28;20040;-68
2023/04/10 07:26:04;;;;;;;19.48;14.23;;;10.80;1.00;;;;;;5046224;28;20414;-67
2023/04/10 07:28:32;;;;;;;19.63;13.65;;;11.10;1.00;;;;;;5030096;28;20026;-66
2023/04/10 07:30:57;;;;;;;18.88;13.10;;;10.60;1.00;;;;;;5038181;28;20048;-68
2023/04/10 07:33:23;;;;;;;17.90;12.77;;;11.00;1.00;;;;;;5041442;28;20405;-66
2023/04/10 07:35:49;;;;;;;17.95;12.18;;;10.90;1.00;;;;;;5045929;28;20036;-66
2023/04/10 07:38:15;;;;;;;18.80;12.05;;;11.00;1.00;;;;;;5035292;28;20465;-66
2023/04/10 07:40:40;;;;;;;18.83;11.70;;;11.20;1.00;;;;;;5045734;28;20063;-67
2023/04/10 07:43:06;;;;;;;19.23;12.15;;;11.00;1.00;;;;;;5036599;28;20065;-67
2023/04/10 07:45:32;;;;;;;16.23;11.13;;;11.50;1.00;;;;;;5056437;28;20120;-66
2023/04/10 07:47:58;;;;;;;19.58;12.43;;;11.80;99.90;;;;;;5046588;28;20034;-67
2023/04/10 07:50:23;;;;;;;19.77;12.35;;;11.40;99.90;;;;;;5038773;28;20103;-66
2023/04/10 07:52:49;;;;;;;17.77;11.52;;;11.60;99.90;;;;;;5046793;28;20509;-66
2023/04/10 07:55:15;;;;;;;17.02;11.40;;;11.50;99.90;;;;;;5051349;28;20065;-66
2023/04/10 07:57:40;;;;;;;19.38;11.18;;;11.90;99.90;;;;;;5049538;28;20246;-66
2023/04/10 08:00:06;;;;;;;16.48;11.30;;;11.40;99.90;;;;;;5037931;28;20413;-66
2023/04/10 08:02:32;;;;;;;15.93;10.98;;;12.20;99.90;;;;;;5045401;28;20501;-67
2023/04/10 08:04:58;;;;;;;17.48;10.77;;;12.30;99.90;;;;;;5045478;28;20128;-67
2023/04/10 08:07:23;;;;;;;16.23;11.70;;;11.80;99.90;;;;;;5047274;28;20040;-67
2023/04/10 08:09:49;;;;;;;17.55;11.65;;;12.30;99.90;;;;;;5043132;28;20397;-67
2023/04/10 08:12:15;;;;;;;16.35;11.27;;;12.30;99.90;;;;;;5047466;28;20037;-66
2023/04/10 08:14:40;;;;;;;16.45;11.23;;;12.60;99.90;;;;;;5046625;28;20047;-67
2023/04/10 08:17:13;;;;;;;16.10;10.48;;;12.20;99.90;;;;;;5045254;28;20041;-67
2023/04/10 08:19:39;;;;;;;18.63;12.52;;;12.40;99.90;;;;;;5050226;28;20040;-66
2023/04/10 08:22:05;;;;;;;15.35;10.73;;;12.80;99.90;;;;;;5048869;28;20521;-67
2023/04/10 08:24:31;;;;;;;16.00;10.93;;;;;;;;;;5049831;28;20068;-67
2023/04/10 08:26:57;;;;;;;16.27;11.13;;;12.50;99.90;;;;;;5050917;28;20179;-67
2023/04/10 08:29:22;;;;;;;14.52;10.65;;;12.50;99.90;;;;;;5050858;28;20167;-66
2023/04/10 08:31:48;;;;;;;16.80;11.52;;;13.20;99.90;;;;;;5046037;28;20533;-67
2023/04/10 08:34:14;;;;;;;15.38;10.43;;;13.10;99.90;;;;;;5043942;28;20037;-66
2023/04/10 08:36:39;;;;;;;15.77;10.75;;;12.80;99.90;;;;;;5050689;28;20041;-66
2023/04/10 08:39:05;;;;;;;15.68;9.68;;;12.90;99.90;;;;;;5043200;28;20078;-67
2023/04/10 08:41:31;;;;;;;15.30;10.43;;;13.60;99.90;;;;;;5051484;28;20052;-66
2023/04/10 08:43:56;;;;;;;14.50;10.20;;;13.40;99.90;;;;;;5046526;28;20414;-67
2023/04/10 08:46:23;;;;;;;14.90;10.07;;;13.30;99.90;;;;;;5060457;28;20037;-67
2023/04/10 08:49:03;;;;;;;14.88;10.35;;;13.10;99.90;;;;;;5050529;28;20067;-65
2023/04/10 08:51:42;;;;;;;15.52;10.10;;;13.80;99.90;;;;;;5047192;28;20033;-66
2023/04/10 08:54:13;;;;;;;14.35;9.48;;;12.90;99.90;;;;;;5049409;28;20042;-66
2023/04/10 08:56:41;;;;;;;16.38;10.35;;;13.40;99.90;;;;;;5048503;28;20067;-66
2023/04/10 08:59:07;;;;;;;13.88;9.93;;;13.30;99.90;;;;;;5047216;28;20351;-67
2023/04/10 09:01:34;;;;;;;15.90;11.43;;;13.30;99.90;;;;;;5049983;28;20037;-66
2023/04/10 09:04:00;;;;;;;14.00;9.90;;;13.50;99.90;;;;;;5048871;28;20044;-66
2023/04/10 09:06:26;;;;;;;14.63;9.68;;;13.90;99.90;;;;;;5050921;28;20037;-67
2023/04/10 09:08:51;;;;;;;15.93;10.40;;;13.80;99.90;;;;;;5048684;28;20047;-67
2023/04/10 09:11:17;;;;;;;15.35;10.32;;;14.00;99.90;;;;;;5049242;28;20112;-66
2023/04/10 09:13:43;;;;;;;15.93;9.63;;;13.40;99.90;;;;;;5039866;28;20033;-67
2023/04/10 09:16:10;;;;;;;15.73;11.40;;;13.50;99.90;;;;;;5048449;28;20121;-67
2023/04/10 09:18:56;;;;;;;14.55;10.05;;;13.70;99.90;;;;;;5049487;28;20040;-66
2023/04/10 09:21:21;;;;;;;15.45;11.82;;;14.00;99.90;;;;;;5045957;28;20048;-66
2023/04/10 09:23:48;;;;;;;14.60;10.73;;;14.20;99.90;;;;;;5048162;28;20040;-68
2023/04/10 09:26:28;;;;;;;15.23;10.55;;;14.10;99.90;;;;;;5041641;28;20033;-66
2023/04/10 09:29:02;;;;;;;15.95;11.52;;;14.20;99.90;;;;;;5043878;28;20094;-66
2023/04/10 09:31:29;;;;;;;14.25;9.90;;;14.10;99.90;;;;;;5049103;28;20071;-66
2023/04/10 09:34:16;;;;;;;14.57;9.75;;;14.40;99.90;;;;;;5044105;28;20880;-66
2023/04/10 09:36:44;;;;;;;14.82;9.77;;;14.00;99.90;;;;;;5029850;28;20076;-67
2023/04/10 09:39:11;;;;;;;14.60;9.57;;;14.60;99.90;;;;;;5045252;28;20043;-67
2023/04/10 09:41:51;;;;;;;28.75;21.70;;;14.50;99.90;;;;;;5042629;28;20127;-67
2023/04/10 09:44:18;;;;;;;101.35;71.32;;;;;;;;;;5049571;28;20036;-66
2023/04/10 09:46:45;;;;;;;43.47;31.35;;;14.70;99.90;;;;;;5047440;28;20125;-67
2023/04/10 09:49:11;;;;;;;61.83;35.03;;;14.60;99.90;;;;;;5049991;28;20055;-67
2023/04/10 09:51:38;;;;;;;49.10;31.70;;;14.20;99.90;;;;;;5050148;28;20120;-67
2023/04/10 09:54:04;;;;;;;24.42;17.85;;;14.40;99.90;;;;;;5045868;28;20095;-66
2023/04/10 09:56:30;;;;;;;14.65;11.57;;;;;;;;;;5043335;28;20031;-66
2023/04/10 09:58:58;;;;;;;16.00;12.35;;;14.40;99.90;;;;;;5049293;28;20422;-66
2023/04/10 10:01:33;;;;;;;12.88;9.95;;;14.40;99.90;;;;;;5048561;28;20128;-66
2023/04/10 10:04:02;;;;;;;14.38;9.90;;;14.80;99.90;;;;;;5049622;28;20052;-67
2023/04/10 10:06:30;;;;;;;14.63;10.20;;;14.10;99.90;;;;;;5049273;28;20048;-67
2023/04/10 10:09:06;;;;;;;16.33;11.80;;;14.60;99.90;;;;;;5048135;28;20503;-66
2023/04/10 10:11:34;;;;;;;15.80;12.23;;;14.60;99.90;;;;;;5043193;28;20068;-67
2023/04/10 10:14:06;;;;;;;17.38;13.38;;;14.70;99.90;;;;;;5047535;28;20063;-67
2023/04/10 10:16:50;;;;;;;16.30;11.93;;;;;;;;;;5050053;28;20036;-67
2023/04/10 10:19:25;;;;;;;16.95;12.32;;;14.80;99.90;;;;;;5040646;28;20032;-66
2023/04/10 10:21:54;;;;;;;13.98;9.82;;;14.40;99.90;;;;;;5031325;28;20102;-66
2023/04/10 10:24:20;;;;;;;14.88;10.57;;;14.80;99.90;;;;;;5039473;28;20033;-66
2023/04/10 10:26:49;;;;;;;13.88;9.27;;;15.10;99.90;;;;;;5037414;28;20573;-67
2023/04/10 10:29:17;;;;;;;14.77;9.90;;;15.30;99.90;;;;;;5037992;28;20067;-66
2023/04/10 10:31:44;;;;;;;13.73;10.30;;;15.70;99.90;;;;;;5039020;28;20037;-67
2023/04/10 10:34:10;;;;;;;14.85;9.27;;;15.10;99.90;;;;;;5040010;28;20374;-66
2023/04/10 10:36:37;;;;;;;13.90;9.73;;;15.80;99.90;;;;;;5034325;28;20127;-66
2023/04/10 10:39:24;;;;;;;12.07;8.50;;;15.10;99.90;;;;;;5044489;28;20037;-66
2023/04/10 10:42:45;;;;;;;16.25;12.48;;;15.80;99.90;;;;;;5037113;28;20081;-65
2023/04/10 10:45:29;;;;;;;15.25;11.25;;;15.40;99.90;;;;;;4982085;28;20070;-65
2023/04/10 10:47:55;;;;;;;13.48;8.73;;;15.50;99.90;;;;;;4981576;28;20038;-65
2023/04/10 10:50:22;;;;;;;11.95;9.38;;;15.60;99.90;;;;;;5026526;28;20052;-65
2023/04/10 10:52:51;;;;;;;11.55;8.25;;;15.60;99.90;;;;;;5035185;28;20540;-65
2023/04/10 10:55:38;;;;;;;15.10;9.13;;;15.70;99.90;;;;;;5043963;28;20144;-65
2023/04/10 10:58:09;;;;;;;13.55;8.82;;;15.30;99.90;;;;;;5037291;28;20044;-65
2023/04/10 11:00:50;;;;;;;15.68;9.32;;;15.50;99.90;;;;;;5048288;28;20040;-65
2023/04/10 11:03:16;;;;;;;14.35;9.75;;;15.90;99.90;;;;;;5031970;28;20390;-64
2023/04/10 11:05:54;;;;;;;13.43;9.30;;;15.40;99.90;;;;;;5044934;28;20029;-65
2023/04/10 11:08:34;;;;;;;14.55;9.52;;;15.40;99.90;;;;;;5031996;28;20033;-65
2023/04/10 11:11:06;;;;;;;14.50;9.43;;;15.90;99.90;;;;;;5045172;28;20079;-65
2023/04/10 11:13:34;;;;;;;14.35;9.32;;;15.80;99.90;;;;;;5035113;28;20037;-66
2023/04/10 11:16:02;;;;;;;14.05;9.63;;;15.60;99.90;;;;;;5043523;28;20037;-66
2023/04/10 11:18:46;;;;;;;14.48;9.85;;;16.00;99.90;;;;;;5037894;28;21416;-66
2023/04/10 11:21:15;;;;;;;14.10;9.13;;;15.70;99.90;;;;;;5035533;28;20041;-66
2023/04/10 11:23:51;;;;;;;13.07;9.32;;;16.10;99.90;;;;;;5034889;28;20096;-66
2023/04/10 11:26:32;;;;;;;12.70;8.73;;;16.00;99.90;;;;;;5041274;28;20048;-65
2023/04/10 11:28:59;;;;;;;14.32;9.60;;;16.40;99.90;;;;;;5032948;28;20041;-66
2023/04/10 11:31:26;;;;;;;12.00;8.65;;;16.60;99.90;;;;;;5040002;28;20080;-66
2023/04/10 11:34:00;;;;;;;12.95;8.30;;;16.50;99.90;;;;;;5043101;28;20041;-66
2023/04/10 11:36:26;;;;;;;12.55;8.73;;;16.50;99.90;;;;;;5043910;28;20036;-66
2023/04/10 11:38:57;;;;;;;12.55;8.43;;;16.20;99.90;;;;;;5045676;28;20532;-66
2023/04/10 11:41:33;;;;;;;12.48;8.75;;;16.70;99.90;;;;;;5046660;28;20044;-65
2023/04/10 11:44:03;;;;;;;23.17;19.75;;;16.90;99.90;;;;;;5044994;28;20144;-66
2023/04/10 11:46:29;;;;;;;18.02;14.75;;;16.80;99.90;;;;;;5034279;28;20120;-67
2023/04/10 11:49:00;;;;;;;11.25;8.10;;;17.20;99.90;;;;;;5036647;28;20124;-67
2023/04/10 11:51:27;;;;;;;12.15;8.13;;;17.00;99.90;;;;;;5036815;28;20037;-66
2023/04/10 11:54:10;;;;;;;14.23;9.02;;;17.30;99.90;;;;;;5045949;28;20398;-66
2023/04/10 11:56:36;;;;;;;12.52;8.35;;;16.70;99.90;;;;;;5044576;28;20044;-66
2023/04/10 11:59:06;;;;;;;12.60;9.20;;;17.00;99.90;;;;;;5046855;28;20037;-66
2023/04/10 12:01:32;;;;;;;20.75;18.52;;;16.70;99.90;;;;;;5039614;28;20045;-66
2023/04/10 12:03:59;;;;;;;13.00;8.10;;;17.20;99.90;;;;;;5040761;28;20402;-66
2023/04/10 12:06:26;;;;;;;10.98;7.63;;;17.20;99.90;;;;;;5043992;28;20037;-66
2023/04/10 12:08:52;;;;;;;13.13;8.55;;;17.10;99.90;;;;;;5038808;28;20051;-66
2023/04/10 12:11:23;;;;;;;13.45;7.35;;;16.80;99.90;;;;;;5047615;28;20446;-66
2023/04/10 12:13:53;;;;;;;13.40;9.93;;;16.20;99.90;;;;;;5035757;28;20471;-67
2023/04/10 12:16:20;;;;;;;11.75;7.95;;;16.60;99.90;;;;;;5046082;28;20037;-65
2023/04/10 12:18:46;;;;;;;11.10;7.75;;;16.60;99.90;;;;;;5044339;28;20041;-66
2023/04/10 12:21:12;;;;;;;14.10;10.15;;;16.00;99.90;;;;;;5045129;28;20520;-66
2023/04/10 12:23:38;;;;;;;13.75;10.27;;;16.50;99.90;;;;;;5046868;28;20112;-66
2023/04/10 12:26:14;;;;;;;11.88;8.57;;;15.80;99.90;;;;;;5046297;28;20025;-65
2023/04/10 12:28:42;;;;;;;13.38;8.25;;;15.50;99.90;;;;;;5042977;28;20037;-66
2023/04/10 12:31:08;;;;;;;10.40;7.35;;;15.40;99.90;;;;;;5036794;28;20491;-66
2023/04/10 12:33:34;;;;;;;10.55;7.68;;;15.50;99.90;;;;;;5041090;28;20072;-66
2023/04/10 12:36:00;;;;;;;11.57;8.20;;;15.60;99.90;;;;;;5043451;28;20055;-66
2023/04/10 12:38:40;;;;;;;10.90;7.22;;;16.00;99.90;;;;;;5048525;28;20386;-65
2023/04/10 12:41:06;;;;;;;10.13;7.40;;;15.70;99.90;;;;;;5036766;28;20033;-66
2023/04/10 12:43:40;;;;;;;11.05;7.57;;;15.70;99.90;;;;;;5041617;28;20033;-67
2023/04/10 12:46:08;;;;;;;19.23;8.93;;;15.60;99.90;;;;;;5037523;28;20037;-66